Terminal Aerodrome Forecast
Issued by NWS Twin Cities, MN

Home | Current Version | Previous Version | Graphics & Text | Print | Product List | Glossary On
Versions: 1 2 3 4 5 6 7 8 9 10 11 12 13 14 15 16
000
FTUS43 KMPX 011805 AAA
TAFSTC
TAF AMD
KSTC 011805Z 0118/0218 29012G18KT P6SM FEW250
     FM012200 29011G17KT P6SM SCT030 BKN050
     FM020300 28008KT P6SM FEW250
     FM021500 VRB05KT P6SM FEW050 SCT250=

USA.gov is the U.S. government's official web portal to all federal, state and local government web resources and services.